sensor_id;sensor_type;location;lat;lon;timestamp;temperature;humidity
56512;DHT22;42408;53.238;5.686;2024-03-07T00:02:06;3.10;99.90
56512;DHT22;42408;53.238;5.686;2024-03-07T00:04:32;3.20;99.90
56512;DHT22;42408;53.238;5.686;2024-03-07T00:06:57;3.20;99.90
56512;DHT22;42408;53.238;5.686;2024-03-07T00:09:23;3.10;99.90
56512;DHT22;42408;53.238;5.686;2024-03-07T00:11:51;3.20;99.90
56512;DHT22;42408;53.238;5.686;2024-03-07T00:14:17;3.20;99.90
56512;DHT22;42408;53.238;5.686;2024-03-07T00:16:43;3.10;99.90
56512;DHT22;42408;53.238;5.686;2024-03-07T00:19:08;3.20;99.90
56512;DHT22;42408;53.238;5.686;2024-03-07T00:21:34;3.10;99.90
56512;DHT22;42408;53.238;5.686;2024-03-07T00:24:00;3.10;99.90
56512;DHT22;42408;53.238;5.686;2024-03-07T00:26:26;3.10;99.90
56512;DHT22;42408;53.238;5.686;2024-03-07T00:28:51;3.10;99.90
56512;DHT22;42408;53.238;5.686;2024-03-07T00:31:17;3.10;99.90
56512;DHT22;42408;53.238;5.686;2024-03-07T00:33:43;3.10;99.90
56512;DHT22;42408;53.238;5.686;2024-03-07T00:36:08;3.10;99.90
56512;DHT22;42408;53.238;5.686;2024-03-07T00:38:34;3.00;99.90
56512;DHT22;42408;53.238;5.686;2024-03-07T00:41:00;3.00;99.90
56512;DHT22;42408;53.238;5.686;2024-03-07T00:43:26;3.00;99.90
56512;DHT22;42408;53.238;5.686;2024-03-07T00:45:51;3.00;99.90
56512;DHT22;42408;53.238;5.686;2024-03-07T00:48:17;3.00;99.90
56512;DHT22;42408;53.238;5.686;2024-03-07T00:50:43;2.90;99.90
56512;DHT22;42408;53.238;5.686;2024-03-07T00:53:09;2.90;99.90
56512;DHT22;42408;53.238;5.686;2024-03-07T00:55:35;2.90;99.90
56512;DHT22;42408;53.238;5.686;2024-03-07T00:58:01;2.90;99.90
56512;DHT22;42408;53.238;5.686;2024-03-07T01:00:28;2.90;99.90
56512;DHT22;42408;53.238;5.686;2024-03-07T01:02:54;2.90;99.90
56512;DHT22;42408;53.238;5.686;2024-03-07T01:05:20;2.80;99.90
56512;DHT22;42408;53.238;5.686;2024-03-07T01:07:46;2.80;99.90
56512;DHT22;42408;53.238;5.686;2024-03-07T01:10:14;2.80;99.90
56512;DHT22;42408;53.238;5.686;2024-03-07T01:12:40;2.80;99.90
56512;DHT22;42408;53.238;5.686;2024-03-07T01:15:06;2.80;99.90
56512;DHT22;42408;53.238;5.686;2024-03-07T01:17:32;2.80;99.90
56512;DHT22;42408;53.238;5.686;2024-03-07T01:19:58;2.90;99.90
56512;DHT22;42408;53.238;5.686;2024-03-07T01:22:24;2.90;99.90
56512;DHT22;42408;53.238;5.686;2024-03-07T01:24:50;2.90;99.90
56512;DHT22;42408;53.238;5.686;2024-03-07T01:27:16;2.90;99.90
56512;DHT22;42408;53.238;5.686;2024-03-07T01:29:43;2.90;99.90
56512;DHT22;42408;53.238;5.686;2024-03-07T01:32:10;2.90;99.90
56512;DHT22;42408;53.238;5.686;2024-03-07T01:34:36;2.90;99.90
56512;DHT22;42408;53.238;5.686;2024-03-07T01:37:01;2.90;99.90
56512;DHT22;42408;53.238;5.686;2024-03-07T01:39:27;2.90;99.90
56512;DHT22;42408;53.238;5.686;2024-03-07T01:41:53;2.90;99.90
56512;DHT22;42408;53.238;5.686;2024-03-07T01:44:18;2.90;99.90
56512;DHT22;42408;53.238;5.686;2024-03-07T01:46:44;3.00;99.90
56512;DHT22;42408;53.238;5.686;2024-03-07T01:49:10;2.90;99.90
56512;DHT22;42408;53.238;5.686;2024-03-07T01:51:37;2.90;99.90
56512;DHT22;42408;53.238;5.686;2024-03-07T01:54:04;2.90;99.90
56512;DHT22;42408;53.238;5.686;2024-03-07T01:56:30;2.90;99.90
56512;DHT22;42408;53.238;5.686;2024-03-07T01:58:56;2.80;99.90
56512;DHT22;42408;53.238;5.686;2024-03-07T02:01:24;2.80;99.90
56512;DHT22;42408;53.238;5.686;2024-03-07T02:03:50;2.80;99.90
56512;DHT22;42408;53.238;5.686;2024-03-07T02:06:15;2.80;99.90
56512;DHT22;42408;53.238;5.686;2024-03-07T02:08:41;2.80;99.90
56512;DHT22;42408;53.238;5.686;2024-03-07T02:11:07;2.80;99.90
56512;DHT22;42408;53.238;5.686;2024-03-07T02:13:35;2.80;99.90
56512;DHT22;42408;53.238;5.686;2024-03-07T02:16:00;2.80;99.90
56512;DHT22;42408;53.238;5.686;2024-03-07T02:18:26;2.80;99.90
56512;DHT22;42408;53.238;5.686;2024-03-07T02:20:52;2.80;99.90
56512;DHT22;42408;53.238;5.686;2024-03-07T02:23:18;2.80;99.90
56512;DHT22;42408;53.238;5.686;2024-03-07T02:25:43;2.80;99.90
56512;DHT22;42408;53.238;5.686;2024-03-07T02:28:10;2.80;99.90
56512;DHT22;42408;53.238;5.686;2024-03-07T02:30:35;2.70;99.90
56512;DHT22;42408;53.238;5.686;2024-03-07T02:33:02;2.70;99.90
56512;DHT22;42408;53.238;5.686;2024-03-07T02:35:35;2.70;99.90
56512;DHT22;42408;53.238;5.686;2024-03-07T02:38:04;2.70;99.90
56512;DHT22;42408;53.238;5.686;2024-03-07T02:40:31;2.60;99.90
56512;DHT22;42408;53.238;5.686;2024-03-07T02:42:57;2.70;99.90
56512;DHT22;42408;53.238;5.686;2024-03-07T02:45:23;2.60;99.90
56512;DHT22;42408;53.238;5.686;2024-03-07T02:47:49;2.60;99.90
56512;DHT22;42408;53.238;5.686;2024-03-07T02:50:15;2.60;99.90
56512;DHT22;42408;53.238;5.686;2024-03-07T02:52:40;2.60;99.90
56512;DHT22;42408;53.238;5.686;2024-03-07T02:55:07;2.60;99.90
56512;DHT22;42408;53.238;5.686;2024-03-07T02:57:36;2.60;99.90
56512;DHT22;42408;53.238;5.686;2024-03-07T03:00:02;2.60;99.90
56512;DHT22;42408;53.238;5.686;2024-03-07T03:02:28;2.60;99.90
56512;DHT22;42408;53.238;5.686;2024-03-07T03:04:54;2.60;99.90
56512;DHT22;42408;53.238;5.686;2024-03-07T03:07:20;2.50;99.90
56512;DHT22;42408;53.238;5.686;2024-03-07T03:09:46;2.50;99.90
56512;DHT22;42408;53.238;5.686;2024-03-07T03:12:12;2.50;99.90
56512;DHT22;42408;53.238;5.686;2024-03-07T03:14:38;2.50;99.90
56512;DHT22;42408;53.238;5.686;2024-03-07T03:17:04;2.50;99.90
56512;DHT22;42408;53.238;5.686;2024-03-07T03:19:29;2.40;99.90
56512;DHT22;42408;53.238;5.686;2024-03-07T03:21:55;2.40;99.90
56512;DHT22;42408;53.238;5.686;2024-03-07T03:24:24;2.40;99.90
56512;DHT22;42408;53.238;5.686;2024-03-07T03:26:51;2.40;99.90
56512;DHT22;42408;53.238;5.686;2024-03-07T03:29:16;2.40;99.90
56512;DHT22;42408;53.238;5.686;2024-03-07T03:31:43;2.40;99.90
56512;DHT22;42408;53.238;5.686;2024-03-07T03:34:09;2.30;99.90
56512;DHT22;42408;53.238;5.686;2024-03-07T03:36:35;2.30;99.90
56512;DHT22;42408;53.238;5.686;2024-03-07T03:39:01;2.30;99.90
56512;DHT22;42408;53.238;5.686;2024-03-07T03:41:26;2.30;99.90
56512;DHT22;42408;53.238;5.686;2024-03-07T03:43:52;2.30;99.90
56512;DHT22;42408;53.238;5.686;2024-03-07T03:46:18;2.20;99.90
56512;DHT22;42408;53.238;5.686;2024-03-07T03:48:44;2.20;99.90
56512;DHT22;42408;53.238;5.686;2024-03-07T03:51:10;2.20;99.90
56512;DHT22;42408;53.238;5.686;2024-03-07T03:53:38;2.20;99.90
56512;DHT22;42408;53.238;5.686;2024-03-07T03:56:04;2.20;99.90
56512;DHT22;42408;53.238;5.686;2024-03-07T03:58:31;2.10;99.90
56512;DHT22;42408;53.238;5.686;2024-03-07T04:00:57;2.10;99.90
56512;DHT22;42408;53.238;5.686;2024-03-07T04:03:24;2.10;99.90
56512;DHT22;42408;53.238;5.686;2024-03-07T04:05:49;2.10;99.90
56512;DHT22;42408;53.238;5.686;2024-03-07T04:08:15;2.10;99.90
56512;DHT22;42408;53.238;5.686;2024-03-07T04:10:41;2.10;99.90
56512;DHT22;42408;53.238;5.686;2024-03-07T04:13:06;2.00;99.90
56512;DHT22;42408;53.238;5.686;2024-03-07T04:15:33;2.00;99.90
56512;DHT22;42408;53.238;5.686;2024-03-07T04:17:59;2.00;99.90
56512;DHT22;42408;53.238;5.686;2024-03-07T04:20:25;2.00;99.90
56512;DHT22;42408;53.238;5.686;2024-03-07T04:22:50;2.00;99.90
56512;DHT22;42408;53.238;5.686;2024-03-07T04:25:16;2.00;99.90
56512;DHT22;42408;53.238;5.686;2024-03-07T04:27:42;2.00;99.90
56512;DHT22;42408;53.238;5.686;2024-03-07T04:30:08;2.00;99.90
56512;DHT22;42408;53.238;5.686;2024-03-07T04:32:36;1.90;99.90
56512;DHT22;42408;53.238;5.686;2024-03-07T04:35:01;1.90;99.90
56512;DHT22;42408;53.238;5.686;2024-03-07T04:37:41;1.90;99.90
56512;DHT22;42408;53.238;5.686;2024-03-07T04:40:08;1.90;99.90
56512;DHT22;42408;53.238;5.686;2024-03-07T04:42:48;1.90;99.90
56512;DHT22;42408;53.238;5.686;2024-03-07T04:45:14;1.90;99.90
56512;DHT22;42408;53.238;5.686;2024-03-07T04:47:41;1.90;99.90
56512;DHT22;42408;53.238;5.686;2024-03-07T04:50:10;1.90;99.90
56512;DHT22;42408;53.238;5.686;2024-03-07T04:52:39;1.90;99.90
56512;DHT22;42408;53.238;5.686;2024-03-07T04:55:09;1.90;99.90
56512;DHT22;42408;53.238;5.686;2024-03-07T04:57:38;1.90;99.90
56512;DHT22;42408;53.238;5.686;2024-03-07T05:00:12;1.90;99.90
56512;DHT22;42408;53.238;5.686;2024-03-07T05:02:41;1.90;99.90
56512;DHT22;42408;53.238;5.686;2024-03-07T05:05:07;1.90;99.90
56512;DHT22;42408;53.238;5.686;2024-03-07T05:07:33;1.90;99.90
56512;DHT22;42408;53.238;5.686;2024-03-07T05:09:59;1.90;99.90
56512;DHT22;42408;53.238;5.686;2024-03-07T05:12:24;1.90;99.90
56512;DHT22;42408;53.238;5.686;2024-03-07T05:14:50;1.90;99.90
56512;DHT22;42408;53.238;5.686;2024-03-07T05:17:16;1.90;99.90
56512;DHT22;42408;53.238;5.686;2024-03-07T05:19:45;1.90;99.90
56512;DHT22;42408;53.238;5.686;2024-03-07T05:22:10;1.90;99.90
56512;DHT22;42408;53.238;5.686;2024-03-07T05:24:43;1.90;99.90
56512;DHT22;42408;53.238;5.686;2024-03-07T05:27:09;1.80;99.90
56512;DHT22;42408;53.238;5.686;2024-03-07T05:29:38;1.80;99.90
56512;DHT22;42408;53.238;5.686;2024-03-07T05:32:20;1.80;99.90
56512;DHT22;42408;53.238;5.686;2024-03-07T05:34:46;1.90;99.90
56512;DHT22;42408;53.238;5.686;2024-03-07T05:37:12;1.80;99.90
56512;DHT22;42408;53.238;5.686;2024-03-07T05:39:38;1.80;99.90
56512;DHT22;42408;53.238;5.686;2024-03-07T05:42:04;1.80;99.90
56512;DHT22;42408;53.238;5.686;2024-03-07T05:44:32;1.80;99.90
56512;DHT22;42408;53.238;5.686;2024-03-07T05:46:58;1.80;99.90
56512;DHT22;42408;53.238;5.686;2024-03-07T05:49:24;1.80;99.90
56512;DHT22;42408;53.238;5.686;2024-03-07T05:51:49;1.80;99.90
56512;DHT22;42408;53.238;5.686;2024-03-07T05:54:15;1.80;99.90
56512;DHT22;42408;53.238;5.686;2024-03-07T05:56:41;1.80;99.90
56512;DHT22;42408;53.238;5.686;2024-03-07T05:59:07;1.80;99.90
56512;DHT22;42408;53.238;5.686;2024-03-07T06:01:35;1.80;99.90
56512;DHT22;42408;53.238;5.686;2024-03-07T06:04:02;1.80;99.90
56512;DHT22;42408;53.238;5.686;2024-03-07T06:06:28;1.80;99.90
56512;DHT22;42408;53.238;5.686;2024-03-07T06:08:55;1.80;99.90
56512;DHT22;42408;53.238;5.686;2024-03-07T06:11:22;1.80;99.90
56512;DHT22;42408;53.238;5.686;2024-03-07T06:13:48;1.80;99.90
56512;DHT22;42408;53.238;5.686;2024-03-07T06:16:14;1.80;99.90
56512;DHT22;42408;53.238;5.686;2024-03-07T06:18:43;1.80;99.90
56512;DHT22;42408;53.238;5.686;2024-03-07T06:21:08;1.80;99.90
56512;DHT22;42408;53.238;5.686;2024-03-07T06:23:34;1.80;99.90
56512;DHT22;42408;53.238;5.686;2024-03-07T06:26:00;1.80;99.90
56512;DHT22;42408;53.238;5.686;2024-03-07T06:28:26;1.80;99.90
56512;DHT22;42408;53.238;5.686;2024-03-07T06:30:55;1.80;99.90
56512;DHT22;42408;53.238;5.686;2024-03-07T06:33:21;1.90;99.90
56512;DHT22;42408;53.238;5.686;2024-03-07T06:35:48;1.90;99.90
56512;DHT22;42408;53.238;5.686;2024-03-07T06:38:14;1.90;99.90
56512;DHT22;42408;53.238;5.686;2024-03-07T06:40:40;1.90;99.90
56512;DHT22;42408;53.238;5.686;2024-03-07T06:43:08;2.00;99.90
56512;DHT22;42408;53.238;5.686;2024-03-07T06:45:39;1.90;99.90
56512;DHT22;42408;53.238;5.686;2024-03-07T06:48:08;2.00;99.90
56512;DHT22;42408;53.238;5.686;2024-03-07T06:50:37;2.00;99.90
56512;DHT22;42408;53.238;5.686;2024-03-07T06:53:03;2.00;99.90
56512;DHT22;42408;53.238;5.686;2024-03-07T06:55:29;2.00;99.90
56512;DHT22;42408;53.238;5.686;2024-03-07T06:57:55;2.00;99.90
56512;DHT22;42408;53.238;5.686;2024-03-07T07:00:20;2.10;99.90
56512;DHT22;42408;53.238;5.686;2024-03-07T07:02:47;2.10;99.90
56512;DHT22;42408;53.238;5.686;2024-03-07T07:05:14;2.20;99.90
56512;DHT22;42408;53.238;5.686;2024-03-07T07:07:44;2.20;99.90
56512;DHT22;42408;53.238;5.686;2024-03-07T07:10:10;2.30;99.90
56512;DHT22;42408;53.238;5.686;2024-03-07T07:12:47;2.40;99.90
56512;DHT22;42408;53.238;5.686;2024-03-07T07:15:17;2.40;99.90
56512;DHT22;42408;53.238;5.686;2024-03-07T07:17:44;2.40;99.90
56512;DHT22;42408;53.238;5.686;2024-03-07T07:20:15;2.50;99.90
56512;DHT22;42408;53.238;5.686;2024-03-07T07:22:42;2.60;99.90
56512;DHT22;42408;53.238;5.686;2024-03-07T07:25:08;2.60;99.90
56512;DHT22;42408;53.238;5.686;2024-03-07T07:27:51;2.70;99.90
56512;DHT22;42408;53.238;5.686;2024-03-07T07:30:22;2.70;99.90
56512;DHT22;42408;53.238;5.686;2024-03-07T07:32:49;2.80;99.90
56512;DHT22;42408;53.238;5.686;2024-03-07T07:35:14;2.80;99.90
56512;DHT22;42408;53.238;5.686;2024-03-07T07:37:45;2.90;99.90
56512;DHT22;42408;53.238;5.686;2024-03-07T07:40:13;3.00;99.90
56512;DHT22;42408;53.238;5.686;2024-03-07T07:42:43;3.00;99.90
56512;DHT22;42408;53.238;5.686;2024-03-07T07:45:09;3.10;99.90
56512;DHT22;42408;53.238;5.686;2024-03-07T07:47:58;3.20;99.90
56512;DHT22;42408;53.238;5.686;2024-03-07T07:50:24;3.30;99.90
56512;DHT22;42408;53.238;5.686;2024-03-07T07:52:54;3.30;99.90
56512;DHT22;42408;53.238;5.686;2024-03-07T07:55:21;3.40;99.90
56512;DHT22;42408;53.238;5.686;2024-03-07T07:57:49;3.50;99.90
56512;DHT22;42408;53.238;5.686;2024-03-07T08:00:16;3.50;99.90
56512;DHT22;42408;53.238;5.686;2024-03-07T08:02:53;3.60;99.90
56512;DHT22;42408;53.238;5.686;2024-03-07T08:05:21;3.70;99.90
56512;DHT22;42408;53.238;5.686;2024-03-07T08:07:52;3.80;99.90
56512;DHT22;42408;53.238;5.686;2024-03-07T08:10:23;3.90;99.90
56512;DHT22;42408;53.238;5.686;2024-03-07T08:12:49;3.90;99.90
56512;DHT22;42408;53.238;5.686;2024-03-07T08:15:15;4.00;99.90
56512;DHT22;42408;53.238;5.686;2024-03-07T08:17:42;4.10;99.90
56512;DHT22;42408;53.238;5.686;2024-03-07T08:20:12;4.30;99.90
56512;DHT22;42408;53.238;5.686;2024-03-07T08:22:42;4.20;99.90
56512;DHT22;42408;53.238;5.686;2024-03-07T08:25:12;4.20;99.90
56512;DHT22;42408;53.238;5.686;2024-03-07T08:27:39;4.30;99.90
56512;DHT22;42408;53.238;5.686;2024-03-07T08:30:05;4.40;99.90
56512;DHT22;42408;53.238;5.686;2024-03-07T08:32:35;4.40;99.90
56512;DHT22;42408;53.238;5.686;2024-03-07T08:35:04;4.40;99.90
56512;DHT22;42408;53.238;5.686;2024-03-07T08:37:42;4.40;99.90
56512;DHT22;42408;53.238;5.686;2024-03-07T08:40:09;4.50;99.90
56512;DHT22;42408;53.238;5.686;2024-03-07T08:42:45;4.50;99.90
56512;DHT22;42408;53.238;5.686;2024-03-07T08:45:11;4.50;99.90
56512;DHT22;42408;53.238;5.686;2024-03-07T08:47:37;4.60;99.90
56512;DHT22;42408;53.238;5.686;2024-03-07T08:50:04;4.60;99.90
56512;DHT22;42408;53.238;5.686;2024-03-07T08:52:36;4.70;99.90
56512;DHT22;42408;53.238;5.686;2024-03-07T08:55:04;4.70;99.90
56512;DHT22;42408;53.238;5.686;2024-03-07T08:57:30;4.70;99.90
56512;DHT22;42408;53.238;5.686;2024-03-07T08:59:56;4.80;99.90
56512;DHT22;42408;53.238;5.686;2024-03-07T09:02:21;4.80;99.90
56512;DHT22;42408;53.238;5.686;2024-03-07T09:04:47;4.80;99.90
56512;DHT22;42408;53.238;5.686;2024-03-07T09:07:13;4.80;99.90
56512;DHT22;42408;53.238;5.686;2024-03-07T09:09:40;4.80;99.90
56512;DHT22;42408;53.238;5.686;2024-03-07T09:12:09;4.90;99.90
56512;DHT22;42408;53.238;5.686;2024-03-07T09:14:35;4.80;99.90
56512;DHT22;42408;53.238;5.686;2024-03-07T09:17:01;4.90;99.90
56512;DHT22;42408;53.238;5.686;2024-03-07T09:19:27;4.90;99.90
56512;DHT22;42408;53.238;5.686;2024-03-07T09:21:54;4.90;99.90
56512;DHT22;42408;53.238;5.686;2024-03-07T09:24:20;4.90;99.90
56512;DHT22;42408;53.238;5.686;2024-03-07T09:26:52;4.90;99.90
56512;DHT22;42408;53.238;5.686;2024-03-07T09:29:19;5.00;99.90
56512;DHT22;42408;53.238;5.686;2024-03-07T09:31:49;5.00;99.90
56512;DHT22;42408;53.238;5.686;2024-03-07T09:34:19;4.90;99.90
56512;DHT22;42408;53.238;5.686;2024-03-07T09:36:46;4.90;99.90
56512;DHT22;42408;53.238;5.686;2024-03-07T09:39:11;4.90;99.90
56512;DHT22;42408;53.238;5.686;2024-03-07T09:41:38;4.80;99.90
56512;DHT22;42408;53.238;5.686;2024-03-07T09:44:05;4.90;99.90
56512;DHT22;42408;53.238;5.686;2024-03-07T09:46:31;4.80;99.90
56512;DHT22;42408;53.238;5.686;2024-03-07T09:49:00;4.80;99.90
56512;DHT22;42408;53.238;5.686;2024-03-07T09:51:27;4.70;99.90
56512;DHT22;42408;53.238;5.686;2024-03-07T09:53:55;4.70;99.90
56512;DHT22;42408;53.238;5.686;2024-03-07T09:56:25;4.80;99.90
56512;DHT22;42408;53.238;5.686;2024-03-07T09:58:55;4.90;99.90
56512;DHT22;42408;53.238;5.686;2024-03-07T10:01:21;5.10;99.90
56512;DHT22;42408;53.238;5.686;2024-03-07T10:03:48;5.20;99.90
56512;DHT22;42408;53.238;5.686;2024-03-07T10:06:15;5.30;99.90
56512;DHT22;42408;53.238;5.686;2024-03-07T10:08:42;5.20;99.90
56512;DHT22;42408;53.238;5.686;2024-03-07T10:11:08;5.10;99.90
56512;DHT22;42408;53.238;5.686;2024-03-07T10:13:35;5.10;99.90
56512;DHT22;42408;53.238;5.686;2024-03-07T10:16:01;5.10;99.90
56512;DHT22;42408;53.238;5.686;2024-03-07T10:18:27;5.10;99.90
56512;DHT22;42408;53.238;5.686;2024-03-07T10:20:54;5.10;99.90
56512;DHT22;42408;53.238;5.686;2024-03-07T10:23:20;5.10;99.90
56512;DHT22;42408;53.238;5.686;2024-03-07T10:25:50;5.20;99.90
56512;DHT22;42408;53.238;5.686;2024-03-07T10:28:16;5.10;99.90
56512;DHT22;42408;53.238;5.686;2024-03-07T10:30:43;5.00;99.90
56512;DHT22;42408;53.238;5.686;2024-03-07T10:33:13;5.00;99.90
56512;DHT22;42408;53.238;5.686;2024-03-07T10:35:39;4.90;99.90
56512;DHT22;42408;53.238;5.686;2024-03-07T10:38:04;4.90;99.90
56512;DHT22;42408;53.238;5.686;2024-03-07T10:40:32;4.90;99.90
56512;DHT22;42408;53.238;5.686;2024-03-07T10:42:59;4.90;99.90
56512;DHT22;42408;53.238;5.686;2024-03-07T10:45:33;4.80;99.90
56512;DHT22;42408;53.238;5.686;2024-03-07T10:48:03;4.80;99.90
56512;DHT22;42408;53.238;5.686;2024-03-07T10:50:43;4.80;99.90
56512;DHT22;42408;53.238;5.686;2024-03-07T10:53:20;4.70;99.90
56512;DHT22;42408;53.238;5.686;2024-03-07T10:58:40;4.80;99.90
56512;DHT22;42408;53.238;5.686;2024-03-07T11:01:09;4.70;99.90
56512;DHT22;42408;53.238;5.686;2024-03-07T11:03:36;4.80;99.90
56512;DHT22;42408;53.238;5.686;2024-03-07T11:06:02;4.80;99.90
56512;DHT22;42408;53.238;5.686;2024-03-07T11:08:33;4.70;99.90
56512;DHT22;42408;53.238;5.686;2024-03-07T11:11:00;4.70;99.90
56512;DHT22;42408;53.238;5.686;2024-03-07T11:13:26;4.60;99.90
56512;DHT22;42408;53.238;5.686;2024-03-07T11:15:52;4.60;99.90
56512;DHT22;42408;53.238;5.686;2024-03-07T11:18:23;4.60;99.90
56512;DHT22;42408;53.238;5.686;2024-03-07T11:20:49;4.60;99.90
56512;DHT22;42408;53.238;5.686;2024-03-07T11:23:29;4.60;99.90
56512;DHT22;42408;53.238;5.686;2024-03-07T11:26:09;4.70;99.90
56512;DHT22;42408;53.238;5.686;2024-03-07T11:28:37;4.70;99.90
56512;DHT22;42408;53.238;5.686;2024-03-07T11:33:37;4.80;99.90
56512;DHT22;42408;53.238;5.686;2024-03-07T11:36:09;4.80;99.90
56512;DHT22;42408;53.238;5.686;2024-03-07T11:38:45;4.90;99.90
56512;DHT22;42408;53.238;5.686;2024-03-07T11:41:12;5.00;99.90
56512;DHT22;42408;53.238;5.686;2024-03-07T11:43:40;5.10;99.90
56512;DHT22;42408;53.238;5.686;2024-03-07T11:46:07;5.20;99.90
56512;DHT22;42408;53.238;5.686;2024-03-07T11:48:39;5.20;99.90
56512;DHT22;42408;53.238;5.686;2024-03-07T11:51:07;5.30;99.90
56512;DHT22;42408;53.238;5.686;2024-03-07T11:53:38;5.30;99.90
56512;DHT22;42408;53.238;5.686;2024-03-07T11:56:04;5.20;99.90
56512;DHT22;42408;53.238;5.686;2024-03-07T11:58:38;5.20;99.90
56512;DHT22;42408;53.238;5.686;2024-03-07T12:01:06;5.40;99.90
56512;DHT22;42408;53.238;5.686;2024-03-07T12:03:36;5.60;99.90
56512;DHT22;42408;53.238;5.686;2024-03-07T12:06:03;5.70;99.90
56512;DHT22;42408;53.238;5.686;2024-03-07T12:08:29;5.70;99.90
56512;DHT22;42408;53.238;5.686;2024-03-07T12:10:55;5.90;99.90
56512;DHT22;42408;53.238;5.686;2024-03-07T12:13:22;5.90;99.90
56512;DHT22;42408;53.238;5.686;2024-03-07T12:15:48;6.00;99.90
56512;DHT22;42408;53.238;5.686;2024-03-07T12:18:17;6.10;99.90
56512;DHT22;42408;53.238;5.686;2024-03-07T12:20:44;6.20;99.90
56512;DHT22;42408;53.238;5.686;2024-03-07T12:23:16;6.40;99.90
56512;DHT22;42408;53.238;5.686;2024-03-07T12:25:45;6.40;99.90
56512;DHT22;42408;53.238;5.686;2024-03-07T12:28:13;6.40;99.90
56512;DHT22;42408;53.238;5.686;2024-03-07T12:30:53;6.40;99.90
56512;DHT22;42408;53.238;5.686;2024-03-07T12:33:20;6.50;99.90
56512;DHT22;42408;53.238;5.686;2024-03-07T12:35:50;6.70;99.90
56512;DHT22;42408;53.238;5.686;2024-03-07T12:38:18;6.70;99.90
56512;DHT22;42408;53.238;5.686;2024-03-07T12:40:44;6.70;99.90
56512;DHT22;42408;53.238;5.686;2024-03-07T12:43:19;6.80;99.90
56512;DHT22;42408;53.238;5.686;2024-03-07T12:45:49;6.80;99.90
56512;DHT22;42408;53.238;5.686;2024-03-07T12:48:15;6.80;99.90
56512;DHT22;42408;53.238;5.686;2024-03-07T12:50:42;6.60;99.90
56512;DHT22;42408;53.238;5.686;2024-03-07T12:53:10;6.60;99.90
56512;DHT22;42408;53.238;5.686;2024-03-07T12:55:40;6.60;99.90
56512;DHT22;42408;53.238;5.686;2024-03-07T12:58:09;6.80;99.90
56512;DHT22;42408;53.238;5.686;2024-03-07T13:00:37;6.90;99.90
56512;DHT22;42408;53.238;5.686;2024-03-07T13:03:04;7.00;99.90
56512;DHT22;42408;53.238;5.686;2024-03-07T13:05:30;6.80;99.90
56512;DHT22;42408;53.238;5.686;2024-03-07T13:07:56;6.80;99.90
56512;DHT22;42408;53.238;5.686;2024-03-07T13:10:22;6.80;99.90
56512;DHT22;42408;53.238;5.686;2024-03-07T13:12:49;6.80;99.90
56512;DHT22;42408;53.238;5.686;2024-03-07T13:15:16;6.90;99.90
56512;DHT22;42408;53.238;5.686;2024-03-07T13:17:41;6.80;99.90
56512;DHT22;42408;53.238;5.686;2024-03-07T13:20:13;7.00;99.90
56512;DHT22;42408;53.238;5.686;2024-03-07T13:22:43;7.00;99.90
56512;DHT22;42408;53.238;5.686;2024-03-07T13:25:15;7.00;99.90
56512;DHT22;42408;53.238;5.686;2024-03-07T13:28:12;6.90;99.90
56512;DHT22;42408;53.238;5.686;2024-03-07T13:30:43;7.00;99.90
56512;DHT22;42408;53.238;5.686;2024-03-07T13:33:09;7.00;99.90
56512;DHT22;42408;53.238;5.686;2024-03-07T13:35:39;7.00;99.90
56512;DHT22;42408;53.238;5.686;2024-03-07T13:38:05;7.10;99.90
56512;DHT22;42408;53.238;5.686;2024-03-07T13:40:32;7.00;99.90
56512;DHT22;42408;53.238;5.686;2024-03-07T13:43:04;7.00;99.90
56512;DHT22;42408;53.238;5.686;2024-03-07T13:45:31;6.90;99.90
56512;DHT22;42408;53.238;5.686;2024-03-07T13:47:57;6.80;99.90
56512;DHT22;42408;53.238;5.686;2024-03-07T13:50:28;6.90;99.90
56512;DHT22;42408;53.238;5.686;2024-03-07T13:52:55;6.80;99.90
56512;DHT22;42408;53.238;5.686;2024-03-07T14:09:43;7.10;99.90
56512;DHT22;42408;53.238;5.686;2024-03-07T14:12:39;7.20;99.90
56512;DHT22;42408;53.238;5.686;2024-03-07T14:15:19;7.00;99.90
56512;DHT22;42408;53.238;5.686;2024-03-07T14:27:04;6.80;99.90
56512;DHT22;42408;53.238;5.686;2024-03-07T14:32:37;6.80;99.90
56512;DHT22;42408;53.238;5.686;2024-03-07T14:40:40;6.80;99.90
56512;DHT22;42408;53.238;5.686;2024-03-07T14:43:06;6.80;99.90
56512;DHT22;42408;53.238;5.686;2024-03-07T14:45:37;6.80;99.90
56512;DHT22;42408;53.238;5.686;2024-03-07T14:48:04;6.80;99.90
56512;DHT22;42408;53.238;5.686;2024-03-07T14:50:33;6.80;99.90
56512;DHT22;42408;53.238;5.686;2024-03-07T14:53:00;6.80;99.90
56512;DHT22;42408;53.238;5.686;2024-03-07T14:55:25;6.80;99.90
56512;DHT22;42408;53.238;5.686;2024-03-07T14:57:51;6.80;99.90
56512;DHT22;42408;53.238;5.686;2024-03-07T15:00:17;6.80;99.90
56512;DHT22;42408;53.238;5.686;2024-03-07T15:02:48;6.70;99.90
56512;DHT22;42408;53.238;5.686;2024-03-07T15:05:15;6.80;99.90
56512;DHT22;42408;53.238;5.686;2024-03-07T15:07:43;6.80;99.90
56512;DHT22;42408;53.238;5.686;2024-03-07T15:10:18;6.80;99.90
56512;DHT22;42408;53.238;5.686;2024-03-07T15:12:46;6.70;99.90
56512;DHT22;42408;53.238;5.686;2024-03-07T15:15:15;6.70;99.90
56512;DHT22;42408;53.238;5.686;2024-03-07T15:17:42;6.70;99.90
56512;DHT22;42408;53.238;5.686;2024-03-07T15:20:11;6.80;99.90
56512;DHT22;42408;53.238;5.686;2024-03-07T15:22:53;6.80;99.90
56512;DHT22;42408;53.238;5.686;2024-03-07T15:25:20;6.70;99.90
56512;DHT22;42408;53.238;5.686;2024-03-07T15:27:48;6.70;99.90
56512;DHT22;42408;53.238;5.686;2024-03-07T15:30:16;6.70;99.90
56512;DHT22;42408;53.238;5.686;2024-03-07T15:32:42;6.70;99.90
56512;DHT22;42408;53.238;5.686;2024-03-07T15:35:09;6.70;99.90
56512;DHT22;42408;53.238;5.686;2024-03-07T15:37:39;6.60;99.90
56512;DHT22;42408;53.238;5.686;2024-03-07T15:40:09;6.70;99.90
56512;DHT22;42408;53.238;5.686;2024-03-07T15:42:43;6.70;99.90
56512;DHT22;42408;53.238;5.686;2024-03-07T15:45:15;6.70;99.90
56512;DHT22;42408;53.238;5.686;2024-03-07T15:47:51;6.60;99.90
56512;DHT22;42408;53.238;5.686;2024-03-07T15:50:18;6.70;99.90
56512;DHT22;42408;53.238;5.686;2024-03-07T15:52:45;6.60;99.90
56512;DHT22;42408;53.238;5.686;2024-03-07T15:55:11;6.60;99.90
56512;DHT22;42408;53.238;5.686;2024-03-07T15:57:47;6.60;99.90
56512;DHT22;42408;53.238;5.686;2024-03-07T16:00:17;6.60;99.90
56512;DHT22;42408;53.238;5.686;2024-03-07T16:05:19;6.60;99.90
56512;DHT22;42408;53.238;5.686;2024-03-07T16:07:45;6.60;99.90
56512;DHT22;42408;53.238;5.686;2024-03-07T16:10:11;6.60;99.90
56512;DHT22;42408;53.238;5.686;2024-03-07T16:12:39;6.60;99.90
56512;DHT22;42408;53.238;5.686;2024-03-07T16:15:06;6.80;99.90
56512;DHT22;42408;53.238;5.686;2024-03-07T16:17:35;6.50;99.90
56512;DHT22;42408;53.238;5.686;2024-03-07T16:20:05;6.50;99.90
56512;DHT22;42408;53.238;5.686;2024-03-07T16:22:41;6.50;99.90
56512;DHT22;42408;53.238;5.686;2024-03-07T16:25:11;6.50;99.90
56512;DHT22;42408;53.238;5.686;2024-03-07T16:27:38;6.50;99.90
56512;DHT22;42408;53.238;5.686;2024-03-07T16:30:10;6.50;99.90